createdAt,value
2023-05-14T00:01:36.610Z,100685.38
2023-05-14T00:04:04.271Z,100682.59
2023-05-14T00:06:32.066Z,100688.13
2023-05-14T00:08:59.496Z,100683.28
2023-05-14T00:11:26.872Z,100682.31
2023-05-14T00:13:54.382Z,100681.50
2023-05-14T00:16:21.771Z,100685.72
2023-05-14T00:18:49.539Z,100686.88
2023-05-14T00:21:17.365Z,100681.97
2023-05-14T00:23:44.870Z,100681.50
2023-05-14T00:26:12.303Z,100681.00
2023-05-14T00:28:40.595Z,100688.81
2023-05-14T00:31:08.507Z,100682.34
2023-05-14T00:33:36.316Z,100682.19
2023-05-14T00:36:04.224Z,100689.16
2023-05-14T00:38:32.153Z,100685.91
2023-05-14T00:40:59.514Z,100680.38
2023-05-14T00:43:27.005Z,100680.38
2023-05-14T00:45:54.878Z,100690.63
2023-05-14T00:48:22.718Z,100680.38
2023-05-14T00:50:50.171Z,100685.91
2023-05-14T00:53:20.908Z,100679.25
2023-05-14T00:55:49.274Z,100679.75
2023-05-14T00:58:16.852Z,100683.28
2023-05-14T01:00:44.337Z,100684.63
2023-05-14T01:03:11.983Z,100684.28
2023-05-14T01:05:46.015Z,100688.31
2023-05-14T01:08:17.276Z,100684.44
2023-05-14T01:10:49.372Z,100693.53
2023-05-14T01:13:29.008Z,100693.53
2023-05-14T01:15:57.829Z,100685.91
2023-05-14T01:18:25.535Z,100687.84
2023-05-14T01:20:53.837Z,100694.19
2023-05-14T01:23:21.375Z,100686.25
2023-05-14T01:25:49.032Z,100698.44
2023-05-14T01:28:20.553Z,100695.16
2023-05-14T01:30:58.283Z,100689.97
2023-05-14T01:33:26.384Z,100691.44
2023-05-14T01:35:54.667Z,100696.94
2023-05-14T01:38:22.387Z,100695.34
2023-05-14T01:40:51.124Z,100701.16
2023-05-14T01:43:18.825Z,100701.50
2023-05-14T01:45:46.405Z,100695.19
2023-05-14T01:48:13.916Z,100695.97
2023-05-14T01:50:41.467Z,100694.34
2023-05-14T01:53:08.826Z,100688.38
2023-05-14T01:55:36.633Z,100697.28
2023-05-14T01:58:04.680Z,100687.72
2023-05-14T02:00:33.294Z,100691.63
2023-05-14T02:03:00.779Z,100693.53
2023-05-14T02:05:28.515Z,100691.63
2023-05-14T02:07:56.784Z,100699.38
2023-05-14T02:10:24.442Z,100698.56
2023-05-14T02:12:52.330Z,100693.72
2023-05-14T02:15:20.048Z,100697.63
2023-05-14T02:17:47.818Z,100697.63
2023-05-14T02:20:15.805Z,100694.66
2023-05-14T02:22:46.147Z,100698.88
2023-05-14T02:25:13.622Z,100701.19
2023-05-14T02:27:41.402Z,100694.84
2023-05-14T02:30:09.813Z,100689.63
2023-05-14T02:32:38.818Z,100696.31
2023-05-14T02:35:06.990Z,100702.44
2023-05-14T02:37:34.950Z,100691.41
2023-05-14T02:40:02.474Z,100700.19
2023-05-14T02:42:30.344Z,100696.31
2023-05-14T02:44:57.854Z,100700.69
2023-05-14T02:47:25.357Z,100689.97
2023-05-14T02:49:53.107Z,100689.97
2023-05-14T02:52:21.362Z,100689.16
2023-05-14T02:54:49.179Z,100691.91
2023-05-14T02:57:16.893Z,100699.06
2023-05-14T02:59:44.486Z,100691.28
2023-05-14T03:02:12.382Z,100695.34
2023-05-14T03:04:40.449Z,100695.34
2023-05-14T03:07:07.857Z,100696.13
2023-05-14T03:09:38.104Z,100696.63
2023-05-14T03:12:07.815Z,100695.19
2023-05-14T03:14:35.911Z,100701.50
2023-05-14T03:17:04.135Z,100701.50
2023-05-14T03:19:32.565Z,100699.22
2023-05-14T03:22:00.234Z,100699.88
2023-05-14T03:24:27.814Z,100705.88
2023-05-14T03:26:55.983Z,100698.91
2023-05-14T03:29:23.505Z,100695.81
2023-05-14T03:31:51.125Z,100707.84
2023-05-14T03:34:18.641Z,100703.59
2023-05-14T03:36:46.300Z,100705.72
2023-05-14T03:39:19.683Z,100711.41
2023-05-14T03:41:47.861Z,100710.41
2023-05-14T03:44:15.712Z,100720.47
2023-05-14T03:46:43.229Z,100715.94
2023-05-14T03:49:10.962Z,100713.00
2023-05-14T03:51:38.582Z,100723.09
2023-05-14T03:54:06.890Z,100715.72
2023-05-14T03:56:35.763Z,100710.06
2023-05-14T03:59:03.791Z,100709.91
2023-05-14T04:01:33.448Z,100718.03
2023-05-14T04:04:00.935Z,100710.72
2023-05-14T04:06:28.464Z,100710.53
2023-05-14T04:08:55.812Z,100708.75
2023-05-14T04:11:23.307Z,100715.69
2023-05-14T04:13:50.976Z,100711.13
2023-05-14T04:16:18.426Z,100707.72
2023-05-14T04:18:46.875Z,100707.53
2023-05-14T04:21:15.613Z,100716.78
2023-05-14T04:23:43.013Z,100718.22
2023-05-14T04:26:10.364Z,100707.34
2023-05-14T04:28:37.716Z,100706.00
2023-05-14T04:31:05.614Z,100707.91
2023-05-14T04:33:33.192Z,100701.06
2023-05-14T04:36:01.120Z,100705.41
2023-05-14T04:38:32.120Z,100711.19
2023-05-14T04:40:59.488Z,100715.53
2023-05-14T04:43:26.915Z,100706.38
2023-05-14T04:45:57.407Z,100706.84
2023-05-14T04:48:24.920Z,100717.50
2023-05-14T04:51:07.912Z,100718.75
2023-05-14T04:53:36.195Z,100719.94
2023-05-14T04:56:03.818Z,100711.72
2023-05-14T04:58:34.611Z,100712.91
2023-05-14T05:01:05.143Z,100710.53
2023-05-14T05:03:32.676Z,100714.34
2023-05-14T05:06:00.455Z,100724.09
2023-05-14T05:08:28.754Z,100714.91
2023-05-14T05:10:59.180Z,100716.81
2023-05-14T05:13:26.910Z,100717.84
2023-05-14T05:15:54.366Z,100722.84
2023-05-14T05:18:22.278Z,100716.41
2023-05-14T05:20:50.418Z,100719.41
2023-05-14T05:23:19.214Z,100730.41
2023-05-14T05:25:46.712Z,100732.13
2023-05-14T05:28:14.626Z,100724.84
2023-05-14T05:30:42.301Z,100721.06
2023-05-14T05:33:09.940Z,100720.81
2023-05-14T05:35:37.881Z,100718.63
2023-05-14T05:38:05.873Z,100725.22
2023-05-14T05:40:34.048Z,100723.03
2023-05-14T05:43:01.504Z,100728.78
2023-05-14T05:45:28.956Z,100715.06
2023-05-14T05:47:56.516Z,100730.97
2023-05-14T05:50:24.762Z,100722.94
2023-05-14T05:52:53.001Z,100714.38
2023-05-14T05:55:20.640Z,100722.91
2023-05-14T05:57:48.227Z,100714.44
2023-05-14T06:00:16.973Z,100713.84
2023-05-14T06:02:44.733Z,100710.84
2023-05-14T06:05:12.725Z,100710.25
2023-05-14T06:07:40.592Z,100708.47
2023-05-14T06:10:08.459Z,100705.47
2023-05-14T06:12:36.141Z,100703.59
2023-05-14T06:15:03.726Z,100715.00
2023-05-14T06:17:31.925Z,100707.25
2023-05-14T06:19:59.508Z,100702.59
2023-05-14T06:22:27.144Z,100716.22
2023-05-14T06:24:54.657Z,100706.06
2023-05-14T06:27:22.090Z,100708.22
2023-05-14T06:29:50.295Z,100713.53
2023-05-14T06:32:17.779Z,100708.97
2023-05-14T06:34:46.022Z,100713.56
2023-05-14T06:37:13.479Z,100712.94
2023-05-14T06:39:44.180Z,100709.09
2023-05-14T06:42:11.776Z,100711.16
2023-05-14T06:44:39.520Z,100712.94
2023-05-14T06:47:08.551Z,100718.72
2023-05-14T06:49:36.575Z,100718.88
2023-05-14T06:52:04.078Z,100715.13
2023-05-14T06:54:31.541Z,100712.88
2023-05-14T06:56:58.940Z,100712.59
2023-05-14T06:59:26.482Z,100704.81
2023-05-14T07:01:53.951Z,100707.78
2023-05-14T07:04:21.330Z,100699.94
2023-05-14T07:06:48.785Z,100700.06
2023-05-14T07:09:16.177Z,100698.16
2023-05-14T07:11:43.658Z,100692.75
2023-05-14T07:14:11.138Z,100691.75
2023-05-14T07:16:38.841Z,100693.59
2023-05-14T07:19:06.311Z,100692.22
2023-05-14T07:21:34.496Z,100700.00
2023-05-14T07:24:02.186Z,100689.44
2023-05-14T07:26:30.504Z,100681.72
2023-05-14T07:28:57.892Z,100682.75
2023-05-14T07:31:25.431Z,100680.84
2023-05-14T07:33:53.104Z,100683.75
2023-05-14T07:36:20.582Z,100685.56
2023-05-14T07:38:48.058Z,100676.53
2023-05-14T07:41:15.517Z,100678.75
2023-05-14T07:43:42.836Z,100686.03
2023-05-14T07:46:10.366Z,100681.84
2023-05-14T07:48:37.763Z,100681.66
2023-05-14T07:51:05.183Z,100675.44
2023-05-14T07:53:32.831Z,100681.13
2023-05-14T07:56:00.282Z,100673.28
2023-05-14T07:58:28.902Z,100670.22
2023-05-14T08:00:57.636Z,100673.44
2023-05-14T08:03:25.335Z,100680.88
2023-05-14T08:05:52.812Z,100665.91
2023-05-14T08:08:20.197Z,100662.91
2023-05-14T08:10:47.623Z,100659.88
2023-05-14T08:13:15.109Z,100655.16
2023-05-14T08:15:42.624Z,100664.50
2023-05-14T08:18:10.184Z,100667.38
2023-05-14T08:20:38.536Z,100665.13
2023-05-14T08:23:07.405Z,100665.16
2023-05-14T08:25:34.947Z,100669.94
2023-05-14T08:28:02.394Z,100664.06
2023-05-14T08:30:30.113Z,100659.78
2023-05-14T08:32:58.389Z,100659.88
2023-05-14T08:35:25.959Z,100660.75
2023-05-14T08:37:53.493Z,100654.38
2023-05-14T08:40:21.450Z,100646.41
2023-05-14T08:42:49.010Z,100649.50
2023-05-14T08:45:16.340Z,100646.97
2023-05-14T08:47:49.341Z,100649.38
2023-05-14T08:50:17.277Z,100645.78
2023-05-14T08:52:44.796Z,100641.50
2023-05-14T08:55:13.459Z,100634.38
2023-05-14T08:57:41.143Z,100631.69
2023-05-14T09:00:11.924Z,100636.94
2023-05-14T09:02:41.882Z,100635.00
2023-05-14T09:05:09.907Z,100633.91
2023-05-14T09:07:37.798Z,100625.19
2023-05-14T09:10:08.952Z,100624.88
2023-05-14T09:12:36.546Z,100631.69
2023-05-14T09:15:04.875Z,100618.97
2023-05-14T09:17:32.888Z,100616.69
2023-05-14T09:20:00.667Z,100617.94
2023-05-14T09:22:29.227Z,100610.34
2023-05-14T09:25:04.861Z,100611.94
2023-05-14T09:27:34.762Z,100599.22
2023-05-14T09:30:12.374Z,100596.84
2023-05-14T09:32:48.286Z,100595.19
2023-05-14T09:35:20.642Z,100595.19
2023-05-14T09:37:54.743Z,100590.81
2023-05-14T09:40:24.124Z,100586.44
2023-05-14T09:42:52.120Z,100588.84
2023-05-14T09:45:19.557Z,100580.91
2023-05-14T09:47:47.000Z,100579.38
2023-05-14T09:50:14.527Z,100577.06
2023-05-14T09:52:42.411Z,100578.72
2023-05-14T09:55:10.253Z,100575.53
2023-05-14T09:57:38.165Z,100565.97
2023-05-14T10:00:06.819Z,100567.56
2023-05-14T10:02:38.049Z,100559.59
2023-05-14T10:05:06.501Z,100562.00
2023-05-14T10:07:46.833Z,100557.22
2023-05-14T10:10:16.674Z,100556.03
2023-05-14T10:12:45.971Z,100565.25
2023-05-14T10:15:22.561Z,100555.22
2023-05-14T10:17:55.280Z,100552.41
2023-05-14T10:20:23.315Z,100546.03
2023-05-14T10:22:51.020Z,100546.00
2023-05-14T10:25:18.813Z,100542.03
2023-05-14T10:27:46.516Z,100537.25
2023-05-14T10:30:14.569Z,100530.44
2023-05-14T10:32:44.340Z,100528.41
2023-05-14T10:35:20.908Z,100515.59
2023-05-14T10:37:51.500Z,100520.03
2023-05-14T10:40:19.478Z,100520.81
2023-05-14T10:42:47.362Z,100514.00
2023-05-14T10:45:15.465Z,100527.63
2023-05-14T10:47:43.822Z,100521.19
2023-05-14T10:50:12.569Z,100509.94
2023-05-14T10:52:44.067Z,100507.97
2023-05-14T10:55:15.537Z,100510.75
2023-05-14T10:57:46.404Z,100507.50
2023-05-14T11:00:14.722Z,100504.34
2023-05-14T11:02:43.784Z,100503.53
2023-05-14T11:05:16.028Z,100504.34
2023-05-14T11:07:53.972Z,100526.78
2023-05-14T11:10:22.249Z,100517.59
2023-05-14T11:12:51.057Z,100539.63
2023-05-14T11:15:19.367Z,100536.44
2023-05-14T11:17:47.405Z,100538.81
2023-05-14T11:20:15.091Z,100544.34
2023-05-14T11:22:43.371Z,100554.69
2023-05-14T11:25:11.454Z,100562.44
2023-05-14T11:27:39.464Z,100571.59
2023-05-14T11:30:14.203Z,100571.16
2023-05-14T11:32:44.355Z,100577.03
2023-05-14T11:35:12.186Z,100568.69
2023-05-14T11:37:40.330Z,100568.59
2023-05-14T11:40:12.622Z,100571.81
2023-05-14T11:42:40.224Z,100566.25
2023-05-14T11:45:12.006Z,100564.69
2023-05-14T11:47:41.683Z,100569.41
2023-05-14T11:50:09.938Z,100563.34
2023-05-14T11:52:41.036Z,100558.53
2023-05-14T11:55:12.862Z,100553.25
2023-05-14T11:57:41.172Z,100551.66
2023-05-14T12:00:11.208Z,100535.75
2023-05-14T12:02:38.959Z,100537.44
2023-05-14T12:05:07.517Z,100548.63
2023-05-14T12:07:36.046Z,100545.50
2023-05-14T12:10:04.019Z,100542.38
2023-05-14T12:12:35.239Z,100541.31
2023-05-14T12:15:02.775Z,100546.59
2023-05-14T12:17:31.420Z,100541.91
2023-05-14T12:19:59.022Z,100527.66
2023-05-14T12:22:26.553Z,100524.59
2023-05-14T12:24:57.962Z,100526.34
2023-05-14T12:27:26.650Z,100520.09
2023-05-14T12:30:19.999Z,100521.03
2023-05-14T12:32:52.718Z,100531.50
2023-05-14T12:35:21.614Z,100533.19
2023-05-14T12:37:49.473Z,100529.19
2023-05-14T12:40:17.260Z,100529.19
2023-05-14T12:42:44.844Z,100529.19
2023-05-14T12:45:12.380Z,100528.78
2023-05-14T12:47:40.231Z,100527.56
2023-05-14T12:50:08.065Z,100530.75
2023-05-14T12:52:39.165Z,100527.53
2023-05-14T12:55:08.908Z,100533.91
2023-05-14T12:57:37.319Z,100533.56
2023-05-14T13:00:08.614Z,100532.81
2023-05-14T13:02:42.863Z,100527.28
2023-05-14T13:05:11.421Z,100533.25
2023-05-14T13:07:39.513Z,100539.75
2023-05-14T13:10:08.326Z,100531.50
2023-05-14T13:12:36.202Z,100531.94
2023-05-14T13:15:04.024Z,100531.19
2023-05-14T13:17:31.973Z,100530.47
2023-05-14T13:19:59.572Z,100531.28
2023-05-14T13:22:27.045Z,100528.06
2023-05-14T13:24:54.521Z,100538.41
2023-05-14T13:27:22.017Z,100522.78
2023-05-14T13:29:49.513Z,100528.69
2023-05-14T13:32:17.044Z,100529.44
2023-05-14T13:34:44.590Z,100536.22
2023-05-14T13:37:12.207Z,100539.75
2023-05-14T13:39:41.143Z,100534.53
2023-05-14T13:42:08.909Z,100540.50
2023-05-14T13:44:36.445Z,100538.88
2023-05-14T13:47:04.357Z,100533.25
2023-05-14T13:49:31.911Z,100533.25
2023-05-14T13:51:59.529Z,100529.25
2023-05-14T13:54:27.320Z,100526.91
2023-05-14T13:56:54.838Z,100522.59
2023-05-14T13:59:23.731Z,100514.66
2023-05-14T14:01:51.766Z,100511.06
2023-05-14T14:04:20.059Z,100523.00
2023-05-14T14:06:47.630Z,100523.00
2023-05-14T14:09:15.196Z,100522.63
2023-05-14T14:11:42.760Z,100513.53
2023-05-14T14:14:10.421Z,100510.75
2023-05-14T14:16:38.396Z,100509.66
2023-05-14T14:19:06.842Z,100507.28
2023-05-14T14:21:35.434Z,100509.72
2023-05-14T14:24:02.992Z,100508.56
2023-05-14T14:26:30.622Z,100503.38
2023-05-14T14:28:58.752Z,100512.19
2023-05-14T14:31:26.253Z,100505.78
2023-05-14T14:33:53.794Z,100516.25
2023-05-14T14:36:21.368Z,100514.66
2023-05-14T14:38:49.001Z,100513.09
2023-05-14T14:41:16.610Z,100513.88
2023-05-14T14:43:44.177Z,100521.06
2023-05-14T14:46:11.643Z,100513.00
2023-05-14T14:48:41.442Z,100511.34
2023-05-14T14:51:09.092Z,100512.91
2023-05-14T14:53:37.182Z,100506.44
2023-05-14T14:56:05.109Z,100512.41
2023-05-14T14:58:32.914Z,100508.78
2023-05-14T15:01:01.221Z,100499.91
2023-05-14T15:03:29.423Z,100505.44
2023-05-14T15:05:57.059Z,100500.59
2023-05-14T15:08:26.559Z,100503.38
2023-05-14T15:10:55.016Z,100500.97
2023-05-14T15:13:22.519Z,100488.50
2023-05-14T15:15:50.723Z,100492.84
2023-05-14T15:18:18.336Z,100494.78
2023-05-14T15:20:46.173Z,100491.56
2023-05-14T15:23:13.763Z,100501.91
2023-05-14T15:25:41.235Z,100501.06
2023-05-14T15:28:08.993Z,100502.22
2023-05-14T15:30:36.558Z,100504.16
2023-05-14T15:33:04.223Z,100505.25
2023-05-14T15:35:32.035Z,100498.44
2023-05-14T15:37:59.879Z,100499.16
2023-05-14T15:40:27.752Z,100489.94
2023-05-14T15:42:55.967Z,100495.88
2023-05-14T15:45:23.581Z,100496.63
2023-05-14T15:47:51.272Z,100495.41
2023-05-14T15:50:19.052Z,100492.56
2023-05-14T15:52:46.672Z,100494.91
2023-05-14T15:55:14.196Z,100492.88
2023-05-14T15:57:41.794Z,100491.63
2023-05-14T16:00:11.159Z,100493.97
2023-05-14T16:02:39.379Z,100489.16
2023-05-14T16:05:07.597Z,100493.91
2023-05-14T16:07:36.475Z,100492.25
2023-05-14T16:10:04.369Z,100488.22
2023-05-14T16:12:32.330Z,100500.91
2023-05-14T16:15:00.187Z,100496.47
2023-05-14T16:17:28.227Z,100500.41
2023-05-14T16:19:56.574Z,100495.53
2023-05-14T16:22:24.226Z,100495.06
2023-05-14T16:24:51.830Z,100497.38
2023-05-14T16:27:19.361Z,100494.56
2023-05-14T16:29:46.862Z,100498.84
2023-05-14T16:32:14.334Z,100490.81
2023-05-14T16:34:41.967Z,100499.88
2023-05-14T16:37:10.784Z,100500.22
2023-05-14T16:39:40.060Z,100500.13
2023-05-14T16:42:07.687Z,100493.69
2023-05-14T16:44:35.251Z,100497.59
2023-05-14T16:47:02.824Z,100508.72
2023-05-14T16:49:30.426Z,100501.44
2023-05-14T16:51:58.297Z,100502.94
2023-05-14T16:54:25.900Z,100496.50
2023-05-14T16:56:53.421Z,100500.41
2023-05-14T16:59:20.929Z,100500.38
2023-05-14T17:01:48.633Z,100500.31
2023-05-14T17:04:16.399Z,100500.28
2023-05-14T17:06:44.148Z,100513.72
2023-05-14T17:09:11.603Z,100512.03
2023-05-14T17:11:39.089Z,100507.16
2023-05-14T17:14:06.916Z,100517.38
2023-05-14T17:16:34.528Z,100514.91
2023-05-14T17:19:02.106Z,100519.63
2023-05-14T17:21:29.748Z,100519.56
2023-05-14T17:23:57.456Z,100527.84
2023-05-14T17:26:24.977Z,100524.22
2023-05-14T17:28:52.652Z,100520.59
2023-05-14T17:31:21.833Z,100524.13
2023-05-14T17:33:49.540Z,100526.84
2023-05-14T17:36:17.138Z,100519.97
2023-05-14T17:38:44.616Z,100517.44
2023-05-14T17:41:12.402Z,100523.69
2023-05-14T17:43:39.838Z,100517.63
2023-05-14T17:46:07.590Z,100519.56
2023-05-14T17:48:35.222Z,100511.50
2023-05-14T17:51:02.669Z,100520.94
2023-05-14T17:53:30.393Z,100515.31
2023-05-14T17:55:58.024Z,100523.97
2023-05-14T17:58:25.656Z,100517.53
2023-05-14T18:00:53.569Z,100522.22
2023-05-14T18:03:21.450Z,100526.91
2023-05-14T18:05:49.315Z,100526.00
2023-05-14T18:08:17.304Z,100523.94
2023-05-14T18:10:44.735Z,100529.09
2023-05-14T18:13:12.402Z,100529.81
2023-05-14T18:15:40.031Z,100521.75
2023-05-14T18:18:07.601Z,100516.91
2023-05-14T18:20:35.642Z,100518.44
2023-05-14T18:23:03.621Z,100520.00
2023-05-14T18:25:31.141Z,100526.28
2023-05-14T18:27:59.164Z,100523.03
2023-05-14T18:30:27.309Z,100518.19
2023-05-14T18:32:54.901Z,100525.66
2023-05-14T18:35:22.586Z,100514.44
2023-05-14T18:37:50.102Z,100528.28
2023-05-14T18:40:18.889Z,100531.44
2023-05-14T18:42:46.793Z,100524.97
2023-05-14T18:45:14.595Z,100526.50
2023-05-14T18:47:42.054Z,100529.56
2023-05-14T18:50:09.767Z,100531.13
2023-05-14T18:52:38.292Z,100524.66
2023-05-14T18:55:06.123Z,100535.72
2023-05-14T18:57:34.094Z,100535.59
2023-05-14T19:00:05.236Z,100535.97
2023-05-14T19:02:35.110Z,100533.94
2023-05-14T19:05:05.093Z,100538.66
2023-05-14T19:07:33.123Z,100540.19
2023-05-14T19:10:00.725Z,100531.44
2023-05-14T19:12:28.586Z,100544.88
2023-05-14T19:14:56.140Z,100537.16
2023-05-14T19:17:24.658Z,100546.25
2023-05-14T19:19:52.191Z,100544.09
2023-05-14T19:22:25.762Z,100539.25
2023-05-14T19:24:55.005Z,100538.34
2023-05-14T19:27:24.181Z,100542.19
2023-05-14T19:29:51.736Z,100547.66
2023-05-14T19:32:19.554Z,100541.63
2023-05-14T19:34:48.425Z,100543.94
2023-05-14T19:37:17.022Z,100554.16
2023-05-14T19:39:47.030Z,100551.75
2023-05-14T19:42:14.502Z,100542.88
2023-05-14T19:44:42.369Z,100544.28
2023-05-14T19:47:10.029Z,100541.69
2023-05-14T19:49:37.800Z,100545.34
2023-05-14T19:52:05.821Z,100545.16
2023-05-14T19:54:33.835Z,100549.69
2023-05-14T19:57:01.568Z,100555.03
2023-05-14T19:59:29.937Z,100548.16
2023-05-14T20:01:57.652Z,100547.59
2023-05-14T20:04:26.127Z,100549.09
2023-05-14T20:06:53.715Z,100541.84
2023-05-14T20:09:21.259Z,100538.94
2023-05-14T20:11:48.762Z,100535.25
2023-05-14T20:14:16.268Z,100537.47
2023-05-14T20:16:43.848Z,100537.69
2023-05-14T20:19:12.129Z,100530.88
2023-05-14T20:21:39.774Z,100530.78
2023-05-14T20:24:07.480Z,100537.03
2023-05-14T20:26:35.140Z,100524.66
2023-05-14T20:29:02.701Z,100538.44
2023-05-14T20:31:31.134Z,100533.16
2023-05-14T20:33:58.762Z,100531.31
2023-05-14T20:36:26.199Z,100534.31
2023-05-14T20:38:53.730Z,100538.50
2023-05-14T20:41:22.295Z,100535.50
2023-05-14T20:43:49.782Z,100531.38
2023-05-14T20:46:18.839Z,100535.50
2023-05-14T20:48:47.965Z,100540.13
2023-05-14T20:51:15.755Z,100532.06
2023-05-14T20:53:43.485Z,100531.63
2023-05-14T20:56:11.029Z,100535.06
2023-05-14T20:58:39.064Z,100529.06
2023-05-14T21:01:08.179Z,100527.00
2023-05-14T21:03:37.357Z,100534.81
2023-05-14T21:06:05.215Z,100532.78
2023-05-14T21:08:34.985Z,100522.84
2023-05-14T21:11:02.596Z,100521.69
2023-05-14T21:13:30.765Z,100526.41
2023-05-14T21:16:00.264Z,100516.59
2023-05-14T21:18:30.829Z,100518.69
2023-05-14T21:20:58.848Z,100517.50
2023-05-14T21:23:26.541Z,100516.84
2023-05-14T21:25:55.009Z,100514.50
2023-05-14T21:28:22.715Z,100519.72
2023-05-14T21:30:50.674Z,100510.69
2023-05-14T21:33:18.105Z,100523.50
2023-05-14T21:35:45.653Z,100517.72
2023-05-14T21:38:13.235Z,100517.50
2023-05-14T21:40:40.820Z,100518.53
2023-05-14T21:43:08.516Z,100510.78
2023-05-14T21:45:36.102Z,100517.69
2023-05-14T21:48:03.841Z,100510.28
2023-05-14T21:50:31.566Z,100512.38
2023-05-14T21:52:59.110Z,100519.53
2023-05-14T21:55:27.733Z,100517.53
2023-05-14T21:57:55.910Z,100510.03
2023-05-14T22:00:24.271Z,100511.66
2023-05-14T22:02:54.993Z,100497.34
2023-05-14T22:05:22.602Z,100500.81
2023-05-14T22:07:50.297Z,100494.44
2023-05-14T22:10:18.106Z,100492.50
2023-05-14T22:12:46.109Z,100491.31
2023-05-14T22:15:13.577Z,100484.63
2023-05-14T22:17:41.820Z,100483.13
2023-05-14T22:20:12.077Z,100486.00
2023-05-14T22:22:39.903Z,100486.00
2023-05-14T22:25:07.996Z,100485.31
2023-05-14T22:27:36.510Z,100485.31
2023-05-14T22:30:04.925Z,100478.59
2023-05-14T22:32:33.379Z,100477.31
2023-05-14T22:35:01.826Z,100476.84
2023-05-14T22:37:29.347Z,100474.44
2023-05-14T22:39:56.910Z,100486.25
2023-05-14T22:42:24.581Z,100478.53
2023-05-14T22:44:52.038Z,100490.22
2023-05-14T22:47:19.658Z,100485.25
2023-05-14T22:49:47.143Z,100488.28
2023-05-14T22:52:14.542Z,100483.31
2023-05-14T22:54:42.530Z,100481.13
2023-05-14T22:57:10.010Z,100477.31
2023-05-14T22:59:39.478Z,100475.25
2023-05-14T23:02:07.222Z,100484.25
2023-05-14T23:04:35.339Z,100481.03
2023-05-14T23:07:02.763Z,100496.75
2023-05-14T23:09:30.381Z,100493.50
2023-05-14T23:11:57.879Z,100496.28
2023-05-14T23:14:25.767Z,100493.50
2023-05-14T23:16:53.285Z,100492.81
2023-05-14T23:19:21.832Z,100488.97
2023-05-14T23:21:49.346Z,100481.50
2023-05-14T23:24:16.947Z,100479.19
2023-05-14T23:26:44.428Z,100482.75
2023-05-14T23:29:11.761Z,100478.38
2023-05-14T23:31:41.083Z,100477.13
2023-05-14T23:34:08.652Z,100473.41
2023-05-14T23:36:36.165Z,100478.69
2023-05-14T23:39:03.815Z,100472.59
2023-05-14T23:41:31.853Z,100475.56
2023-05-14T23:43:59.510Z,100477.06
2023-05-14T23:46:27.275Z,100466.72
2023-05-14T23:48:57.089Z,100469.72
2023-05-14T23:51:24.744Z,100472.69
2023-05-14T23:53:56.385Z,100470.16
2023-05-14T23:56:24.882Z,100475.59
2023-05-14T23:58:52.645Z,100475.47
